sensor_id;sensor_type;location;lat;lon;timestamp;temperature;humidity
17954;DHT22;9102;53.548;9.926;2022-07-04T00:01:35;16.20;99.90
17954;DHT22;9102;53.548;9.926;2022-07-04T00:04:02;16.10;99.90
17954;DHT22;9102;53.548;9.926;2022-07-04T00:06:29;16.10;99.90
17954;DHT22;9102;53.548;9.926;2022-07-04T00:08:57;16.00;99.90
17954;DHT22;9102;53.548;9.926;2022-07-04T00:11:24;16.00;99.90
17954;DHT22;9102;53.548;9.926;2022-07-04T00:13:51;16.00;99.90
17954;DHT22;9102;53.548;9.926;2022-07-04T00:16:18;16.00;99.90
17954;DHT22;9102;53.548;9.926;2022-07-04T00:18:44;16.00;99.90
17954;DHT22;9102;53.548;9.926;2022-07-04T00:21:11;16.00;99.90
17954;DHT22;9102;53.548;9.926;2022-07-04T00:23:38;16.00;99.90
17954;DHT22;9102;53.548;9.926;2022-07-04T00:26:06;16.00;99.90
17954;DHT22;9102;53.548;9.926;2022-07-04T00:28:33;16.00;99.90
17954;DHT22;9102;53.548;9.926;2022-07-04T00:31:00;16.00;99.90
17954;DHT22;9102;53.548;9.926;2022-07-04T00:33:27;15.90;99.90
17954;DHT22;9102;53.548;9.926;2022-07-04T00:35:54;15.90;99.90
17954;DHT22;9102;53.548;9.926;2022-07-04T00:38:21;15.90;99.90
17954;DHT22;9102;53.548;9.926;2022-07-04T00:40:47;15.80;99.90
17954;DHT22;9102;53.548;9.926;2022-07-04T00:43:22;15.90;99.90
17954;DHT22;9102;53.548;9.926;2022-07-04T00:45:50;15.70;99.90
17954;DHT22;9102;53.548;9.926;2022-07-04T00:48:17;15.70;99.90
17954;DHT22;9102;53.548;9.926;2022-07-04T00:50:44;15.70;99.90
17954;DHT22;9102;53.548;9.926;2022-07-04T00:53:12;15.70;99.90
17954;DHT22;9102;53.548;9.926;2022-07-04T00:55:39;15.70;99.90
17954;DHT22;9102;53.548;9.926;2022-07-04T00:58:06;15.70;99.90
17954;DHT22;9102;53.548;9.926;2022-07-04T01:00:35;15.70;99.90
17954;DHT22;9102;53.548;9.926;2022-07-04T01:03:02;15.60;99.90
17954;DHT22;9102;53.548;9.926;2022-07-04T01:05:29;15.60;99.90
17954;DHT22;9102;53.548;9.926;2022-07-04T01:07:57;15.60;99.90
17954;DHT22;9102;53.548;9.926;2022-07-04T01:10:24;15.60;99.90
17954;DHT22;9102;53.548;9.926;2022-07-04T01:12:51;15.60;99.90
17954;DHT22;9102;53.548;9.926;2022-07-04T01:15:19;15.50;99.90
17954;DHT22;9102;53.548;9.926;2022-07-04T01:17:47;15.50;99.90
17954;DHT22;9102;53.548;9.926;2022-07-04T01:20:16;15.50;99.90
17954;DHT22;9102;53.548;9.926;2022-07-04T01:22:43;15.50;99.90
17954;DHT22;9102;53.548;9.926;2022-07-04T01:25:10;15.40;99.90
17954;DHT22;9102;53.548;9.926;2022-07-04T01:27:38;15.40;99.90
17954;DHT22;9102;53.548;9.926;2022-07-04T01:30:06;15.40;99.90
17954;DHT22;9102;53.548;9.926;2022-07-04T01:32:33;15.40;99.90
17954;DHT22;9102;53.548;9.926;2022-07-04T01:35:00;15.40;99.90
17954;DHT22;9102;53.548;9.926;2022-07-04T01:37:28;15.40;99.90
17954;DHT22;9102;53.548;9.926;2022-07-04T01:39:55;15.50;99.90
17954;DHT22;9102;53.548;9.926;2022-07-04T01:42:22;15.50;99.90
17954;DHT22;9102;53.548;9.926;2022-07-04T01:44:48;15.60;99.90
17954;DHT22;9102;53.548;9.926;2022-07-04T01:47:16;15.60;99.90
17954;DHT22;9102;53.548;9.926;2022-07-04T01:49:43;15.60;99.90
17954;DHT22;9102;53.548;9.926;2022-07-04T01:52:10;15.70;99.90
17954;DHT22;9102;53.548;9.926;2022-07-04T01:54:38;15.70;99.90
17954;DHT22;9102;53.548;9.926;2022-07-04T01:57:05;15.70;99.90
17954;DHT22;9102;53.548;9.926;2022-07-04T01:59:32;15.70;99.90
17954;DHT22;9102;53.548;9.926;2022-07-04T02:02:16;15.70;99.90
17954;DHT22;9102;53.548;9.926;2022-07-04T02:04:43;15.70;99.90
17954;DHT22;9102;53.548;9.926;2022-07-04T02:07:10;15.70;99.90
17954;DHT22;9102;53.548;9.926;2022-07-04T02:09:38;15.70;99.90
17954;DHT22;9102;53.548;9.926;2022-07-04T02:12:06;15.70;99.90
17954;DHT22;9102;53.548;9.926;2022-07-04T02:14:50;15.60;99.90
17954;DHT22;9102;53.548;9.926;2022-07-04T02:17:17;15.60;99.90
17954;DHT22;9102;53.548;9.926;2022-07-04T02:19:44;15.50;99.90
17954;DHT22;9102;53.548;9.926;2022-07-04T02:22:11;15.50;99.90
17954;DHT22;9102;53.548;9.926;2022-07-04T02:24:40;15.50;99.90
17954;DHT22;9102;53.548;9.926;2022-07-04T02:27:07;15.50;99.90
17954;DHT22;9102;53.548;9.926;2022-07-04T02:29:34;15.40;99.90
17954;DHT22;9102;53.548;9.926;2022-07-04T02:32:01;15.40;99.90
17954;DHT22;9102;53.548;9.926;2022-07-04T02:34:28;15.40;99.90
17954;DHT22;9102;53.548;9.926;2022-07-04T02:36:55;15.50;99.90
17954;DHT22;9102;53.548;9.926;2022-07-04T02:39:22;15.40;99.90
17954;DHT22;9102;53.548;9.926;2022-07-04T02:41:51;15.30;99.90
17954;DHT22;9102;53.548;9.926;2022-07-04T02:44:17;15.30;99.90
17954;DHT22;9102;53.548;9.926;2022-07-04T02:46:45;15.40;99.90
17954;DHT22;9102;53.548;9.926;2022-07-04T02:49:12;15.30;99.90
17954;DHT22;9102;53.548;9.926;2022-07-04T02:51:38;15.40;99.90
17954;DHT22;9102;53.548;9.926;2022-07-04T02:54:05;15.40;99.90
17954;DHT22;9102;53.548;9.926;2022-07-04T02:56:32;15.40;99.90
17954;DHT22;9102;53.548;9.926;2022-07-04T02:59:00;15.40;99.90
17954;DHT22;9102;53.548;9.926;2022-07-04T03:01:27;15.50;99.90
17954;DHT22;9102;53.548;9.926;2022-07-04T03:03:54;15.50;99.90
17954;DHT22;9102;53.548;9.926;2022-07-04T03:06:21;15.50;99.90
17954;DHT22;9102;53.548;9.926;2022-07-04T03:08:48;15.60;99.90
17954;DHT22;9102;53.548;9.926;2022-07-04T03:11:14;15.60;99.90
17954;DHT22;9102;53.548;9.926;2022-07-04T03:13:41;15.60;99.90
17954;DHT22;9102;53.548;9.926;2022-07-04T03:16:09;15.60;99.90
17954;DHT22;9102;53.548;9.926;2022-07-04T03:18:36;15.50;99.90
17954;DHT22;9102;53.548;9.926;2022-07-04T03:21:03;15.50;99.90
17954;DHT22;9102;53.548;9.926;2022-07-04T03:23:31;15.60;99.90
17954;DHT22;9102;53.548;9.926;2022-07-04T03:25:58;15.40;99.90
17954;DHT22;9102;53.548;9.926;2022-07-04T03:28:25;15.40;99.90
17954;DHT22;9102;53.548;9.926;2022-07-04T03:30:52;15.40;99.90
17954;DHT22;9102;53.548;9.926;2022-07-04T03:33:20;15.40;99.90
17954;DHT22;9102;53.548;9.926;2022-07-04T03:35:47;15.40;99.90
17954;DHT22;9102;53.548;9.926;2022-07-04T03:38:14;15.40;99.90
17954;DHT22;9102;53.548;9.926;2022-07-04T03:40:41;15.50;99.90
17954;DHT22;9102;53.548;9.926;2022-07-04T03:43:08;15.50;99.90
17954;DHT22;9102;53.548;9.926;2022-07-04T03:45:35;15.50;99.90
17954;DHT22;9102;53.548;9.926;2022-07-04T03:48:02;15.50;99.90
17954;DHT22;9102;53.548;9.926;2022-07-04T03:50:30;15.40;99.90
17954;DHT22;9102;53.548;9.926;2022-07-04T03:52:57;15.40;99.90
17954;DHT22;9102;53.548;9.926;2022-07-04T03:55:24;15.50;99.90
17954;DHT22;9102;53.548;9.926;2022-07-04T03:57:51;15.50;99.90
17954;DHT22;9102;53.548;9.926;2022-07-04T04:00:18;15.50;99.90
17954;DHT22;9102;53.548;9.926;2022-07-04T04:02:45;15.50;99.90
17954;DHT22;9102;53.548;9.926;2022-07-04T04:05:12;15.60;99.90
17954;DHT22;9102;53.548;9.926;2022-07-04T04:07:55;15.60;99.90
17954;DHT22;9102;53.548;9.926;2022-07-04T04:10:22;15.60;99.90
17954;DHT22;9102;53.548;9.926;2022-07-04T04:12:49;15.60;99.90
17954;DHT22;9102;53.548;9.926;2022-07-04T04:15:16;15.60;99.90
17954;DHT22;9102;53.548;9.926;2022-07-04T04:17:43;15.70;99.90
17954;DHT22;9102;53.548;9.926;2022-07-04T04:20:10;15.80;99.90
17954;DHT22;9102;53.548;9.926;2022-07-04T04:22:37;15.80;99.90
17954;DHT22;9102;53.548;9.926;2022-07-04T04:25:06;15.80;99.90
17954;DHT22;9102;53.548;9.926;2022-07-04T04:27:34;15.80;99.90
17954;DHT22;9102;53.548;9.926;2022-07-04T04:30:01;15.80;99.90
17954;DHT22;9102;53.548;9.926;2022-07-04T04:32:28;15.80;99.90
17954;DHT22;9102;53.548;9.926;2022-07-04T04:34:55;15.90;99.90
17954;DHT22;9102;53.548;9.926;2022-07-04T04:37:21;15.80;99.90
17954;DHT22;9102;53.548;9.926;2022-07-04T04:39:48;15.80;99.90
17954;DHT22;9102;53.548;9.926;2022-07-04T04:42:16;15.80;99.90
17954;DHT22;9102;53.548;9.926;2022-07-04T04:44:43;15.80;99.90
17954;DHT22;9102;53.548;9.926;2022-07-04T04:47:10;16.00;99.90
17954;DHT22;9102;53.548;9.926;2022-07-04T04:49:37;16.20;99.90
17954;DHT22;9102;53.548;9.926;2022-07-04T04:52:04;16.40;99.90
17954;DHT22;9102;53.548;9.926;2022-07-04T04:54:32;16.70;99.90
17954;DHT22;9102;53.548;9.926;2022-07-04T04:56:59;16.90;99.90
17954;DHT22;9102;53.548;9.926;2022-07-04T04:59:28;16.90;99.90
17954;DHT22;9102;53.548;9.926;2022-07-04T05:01:55;17.00;99.90
17954;DHT22;9102;53.548;9.926;2022-07-04T05:04:22;17.00;99.90
17954;DHT22;9102;53.548;9.926;2022-07-04T05:06:49;17.10;99.90
17954;DHT22;9102;53.548;9.926;2022-07-04T05:09:16;17.10;99.90
17954;DHT22;9102;53.548;9.926;2022-07-04T05:11:43;17.10;99.90
17954;DHT22;9102;53.548;9.926;2022-07-04T05:14:10;17.30;99.90
17954;DHT22;9102;53.548;9.926;2022-07-04T05:16:38;17.60;99.90
17954;DHT22;9102;53.548;9.926;2022-07-04T05:19:05;17.70;99.90
17954;DHT22;9102;53.548;9.926;2022-07-04T05:21:32;17.80;99.90
17954;DHT22;9102;53.548;9.926;2022-07-04T05:23:59;17.70;99.90
17954;DHT22;9102;53.548;9.926;2022-07-04T05:26:26;17.50;99.90
17954;DHT22;9102;53.548;9.926;2022-07-04T05:28:53;17.40;99.90
17954;DHT22;9102;53.548;9.926;2022-07-04T05:31:21;17.20;99.90
17954;DHT22;9102;53.548;9.926;2022-07-04T05:33:51;17.20;99.90
17954;DHT22;9102;53.548;9.926;2022-07-04T05:36:18;17.20;99.90
17954;DHT22;9102;53.548;9.926;2022-07-04T05:38:46;17.20;99.90
17954;DHT22;9102;53.548;9.926;2022-07-04T05:41:13;17.30;99.90
17954;DHT22;9102;53.548;9.926;2022-07-04T05:43:40;17.40;99.90
17954;DHT22;9102;53.548;9.926;2022-07-04T05:46:06;17.40;99.90
17954;DHT22;9102;53.548;9.926;2022-07-04T05:48:33;17.30;99.90
17954;DHT22;9102;53.548;9.926;2022-07-04T05:51:02;17.40;99.90
17954;DHT22;9102;53.548;9.926;2022-07-04T05:53:29;17.50;99.90
17954;DHT22;9102;53.548;9.926;2022-07-04T05:55:55;17.50;99.90
17954;DHT22;9102;53.548;9.926;2022-07-04T05:58:22;17.50;99.90
17954;DHT22;9102;53.548;9.926;2022-07-04T06:00:49;17.50;99.90
17954;DHT22;9102;53.548;9.926;2022-07-04T06:03:16;17.50;99.90
17954;DHT22;9102;53.548;9.926;2022-07-04T06:05:43;17.60;99.90
17954;DHT22;9102;53.548;9.926;2022-07-04T06:08:11;17.60;99.90
17954;DHT22;9102;53.548;9.926;2022-07-04T06:10:39;17.70;99.90
17954;DHT22;9102;53.548;9.926;2022-07-04T06:13:06;17.70;99.90
17954;DHT22;9102;53.548;9.926;2022-07-04T06:15:32;17.90;99.90
17954;DHT22;9102;53.548;9.926;2022-07-04T06:17:59;18.10;99.90
17954;DHT22;9102;53.548;9.926;2022-07-04T06:20:28;18.20;99.90
17954;DHT22;9102;53.548;9.926;2022-07-04T06:22:55;18.30;99.90
17954;DHT22;9102;53.548;9.926;2022-07-04T06:25:23;18.30;99.90
17954;DHT22;9102;53.548;9.926;2022-07-04T06:27:50;18.30;99.90
17954;DHT22;9102;53.548;9.926;2022-07-04T06:30:18;18.30;99.90
17954;DHT22;9102;53.548;9.926;2022-07-04T06:32:46;18.30;99.90
17954;DHT22;9102;53.548;9.926;2022-07-04T06:35:13;18.40;99.90
17954;DHT22;9102;53.548;9.926;2022-07-04T06:37:58;18.40;99.90
17954;DHT22;9102;53.548;9.926;2022-07-04T06:40:26;18.30;99.90
17954;DHT22;9102;53.548;9.926;2022-07-04T06:42:53;18.40;99.90
17954;DHT22;9102;53.548;9.926;2022-07-04T06:45:20;18.40;99.90
17954;DHT22;9102;53.548;9.926;2022-07-04T06:47:47;18.40;99.90
17954;DHT22;9102;53.548;9.926;2022-07-04T06:50:14;18.50;99.90
17954;DHT22;9102;53.548;9.926;2022-07-04T06:52:41;18.50;99.90
17954;DHT22;9102;53.548;9.926;2022-07-04T06:55:08;18.40;99.90
17954;DHT22;9102;53.548;9.926;2022-07-04T06:57:37;18.40;99.90
17954;DHT22;9102;53.548;9.926;2022-07-04T07:00:06;18.40;99.90
17954;DHT22;9102;53.548;9.926;2022-07-04T07:02:34;18.50;99.90
17954;DHT22;9102;53.548;9.926;2022-07-04T07:05:02;18.60;99.90
17954;DHT22;9102;53.548;9.926;2022-07-04T07:07:29;18.70;99.90
17954;DHT22;9102;53.548;9.926;2022-07-04T07:09:56;18.80;99.90
17954;DHT22;9102;53.548;9.926;2022-07-04T07:12:23;18.90;99.90
17954;DHT22;9102;53.548;9.926;2022-07-04T07:14:52;18.80;99.90
17954;DHT22;9102;53.548;9.926;2022-07-04T07:17:20;18.90;99.90
17954;DHT22;9102;53.548;9.926;2022-07-04T07:19:47;19.00;99.90
17954;DHT22;9102;53.548;9.926;2022-07-04T07:22:14;19.00;99.90
17954;DHT22;9102;53.548;9.926;2022-07-04T07:24:42;19.00;99.90
17954;DHT22;9102;53.548;9.926;2022-07-04T07:27:09;19.00;99.90
17954;DHT22;9102;53.548;9.926;2022-07-04T07:29:36;19.00;99.90
17954;DHT22;9102;53.548;9.926;2022-07-04T07:32:06;18.90;99.90
17954;DHT22;9102;53.548;9.926;2022-07-04T07:34:33;18.80;99.90
17954;DHT22;9102;53.548;9.926;2022-07-04T07:37:00;18.80;99.90
17954;DHT22;9102;53.548;9.926;2022-07-04T07:39:27;18.70;99.90
17954;DHT22;9102;53.548;9.926;2022-07-04T07:41:54;18.90;99.90
17954;DHT22;9102;53.548;9.926;2022-07-04T07:44:20;19.00;99.90
17954;DHT22;9102;53.548;9.926;2022-07-04T07:46:47;19.10;99.90
17954;DHT22;9102;53.548;9.926;2022-07-04T07:49:15;19.30;99.90
17954;DHT22;9102;53.548;9.926;2022-07-04T07:51:42;19.30;99.90
17954;DHT22;9102;53.548;9.926;2022-07-04T07:54:09;19.30;99.90
17954;DHT22;9102;53.548;9.926;2022-07-04T07:56:36;19.30;99.90
17954;DHT22;9102;53.548;9.926;2022-07-04T07:59:03;19.40;99.90
17954;DHT22;9102;53.548;9.926;2022-07-04T08:01:30;19.30;99.90
17954;DHT22;9102;53.548;9.926;2022-07-04T08:03:57;19.20;99.90
17954;DHT22;9102;53.548;9.926;2022-07-04T08:06:43;19.10;99.90
17954;DHT22;9102;53.548;9.926;2022-07-04T08:09:10;19.10;99.90
17954;DHT22;9102;53.548;9.926;2022-07-04T08:11:36;19.30;99.90
17954;DHT22;9102;53.548;9.926;2022-07-04T08:14:04;19.50;99.90
17954;DHT22;9102;53.548;9.926;2022-07-04T08:16:33;19.70;99.90
17954;DHT22;9102;53.548;9.926;2022-07-04T08:19:00;19.60;99.90
17954;DHT22;9102;53.548;9.926;2022-07-04T08:21:26;19.40;99.90
17954;DHT22;9102;53.548;9.926;2022-07-04T08:23:55;19.30;99.90
17954;DHT22;9102;53.548;9.926;2022-07-04T08:26:22;19.20;99.90
17954;DHT22;9102;53.548;9.926;2022-07-04T08:28:49;19.30;99.90
17954;DHT22;9102;53.548;9.926;2022-07-04T08:31:17;19.30;99.90
17954;DHT22;9102;53.548;9.926;2022-07-04T08:33:44;19.30;99.90
17954;DHT22;9102;53.548;9.926;2022-07-04T08:36:12;19.20;99.90
17954;DHT22;9102;53.548;9.926;2022-07-04T08:38:39;19.30;99.90
17954;DHT22;9102;53.548;9.926;2022-07-04T08:41:08;19.50;99.90
17954;DHT22;9102;53.548;9.926;2022-07-04T08:43:35;19.70;99.90
17954;DHT22;9102;53.548;9.926;2022-07-04T08:46:04;19.90;99.90
17954;DHT22;9102;53.548;9.926;2022-07-04T08:48:32;20.10;99.90
17954;DHT22;9102;53.548;9.926;2022-07-04T08:51:04;20.20;99.90
17954;DHT22;9102;53.548;9.926;2022-07-04T08:53:38;20.20;99.90
17954;DHT22;9102;53.548;9.926;2022-07-04T08:56:09;20.20;99.90
17954;DHT22;9102;53.548;9.926;2022-07-04T08:58:55;20.30;99.90
17954;DHT22;9102;53.548;9.926;2022-07-04T09:01:22;20.70;99.90
17954;DHT22;9102;53.548;9.926;2022-07-04T09:03:50;20.60;99.90
17954;DHT22;9102;53.548;9.926;2022-07-04T09:06:17;20.50;99.90
17954;DHT22;9102;53.548;9.926;2022-07-04T09:08:45;20.60;99.90
17954;DHT22;9102;53.548;9.926;2022-07-04T09:11:13;20.80;99.90
17954;DHT22;9102;53.548;9.926;2022-07-04T09:13:40;21.20;99.90
17954;DHT22;9102;53.548;9.926;2022-07-04T09:16:07;21.20;99.90
17954;DHT22;9102;53.548;9.926;2022-07-04T09:18:35;21.50;99.90
17954;DHT22;9102;53.548;9.926;2022-07-04T09:21:04;21.60;99.90
17954;DHT22;9102;53.548;9.926;2022-07-04T09:23:34;21.40;99.90
17954;DHT22;9102;53.548;9.926;2022-07-04T09:26:10;21.10;99.90
17954;DHT22;9102;53.548;9.926;2022-07-04T09:28:41;21.20;99.90
17954;DHT22;9102;53.548;9.926;2022-07-04T09:31:16;21.30;99.90
17954;DHT22;9102;53.548;9.926;2022-07-04T09:33:51;21.30;99.90
17954;DHT22;9102;53.548;9.926;2022-07-04T09:36:20;21.30;99.90
17954;DHT22;9102;53.548;9.926;2022-07-04T09:39:06;21.30;99.90
17954;DHT22;9102;53.548;9.926;2022-07-04T09:41:53;21.60;99.90
17954;DHT22;9102;53.548;9.926;2022-07-04T09:44:23;21.80;99.90
17954;DHT22;9102;53.548;9.926;2022-07-04T09:46:50;22.10;99.90
17954;DHT22;9102;53.548;9.926;2022-07-04T09:49:18;22.00;99.90
17954;DHT22;9102;53.548;9.926;2022-07-04T09:51:47;21.90;99.90
17954;DHT22;9102;53.548;9.926;2022-07-04T09:54:19;21.80;99.90
17954;DHT22;9102;53.548;9.926;2022-07-04T09:56:50;21.80;99.90
17954;DHT22;9102;53.548;9.926;2022-07-04T09:59:17;22.00;99.90
17954;DHT22;9102;53.548;9.926;2022-07-04T10:01:46;22.20;99.90
17954;DHT22;9102;53.548;9.926;2022-07-04T10:04:13;22.20;99.90
17954;DHT22;9102;53.548;9.926;2022-07-04T10:06:42;22.30;99.90
17954;DHT22;9102;53.548;9.926;2022-07-04T10:09:12;22.40;99.90
17954;DHT22;9102;53.548;9.926;2022-07-04T10:11:40;22.70;99.90
17954;DHT22;9102;53.548;9.926;2022-07-04T10:14:10;23.00;99.90
17954;DHT22;9102;53.548;9.926;2022-07-04T10:16:38;23.00;99.90
17954;DHT22;9102;53.548;9.926;2022-07-04T10:19:07;23.10;99.90
17954;DHT22;9102;53.548;9.926;2022-07-04T10:21:34;23.20;99.90
17954;DHT22;9102;53.548;9.926;2022-07-04T10:24:02;23.20;99.90
17954;DHT22;9102;53.548;9.926;2022-07-04T10:26:30;23.20;99.90
17954;DHT22;9102;53.548;9.926;2022-07-04T10:28:58;23.00;99.90
17954;DHT22;9102;53.548;9.926;2022-07-04T10:31:26;22.90;99.90
17954;DHT22;9102;53.548;9.926;2022-07-04T10:33:55;22.90;99.90
17954;DHT22;9102;53.548;9.926;2022-07-04T10:36:25;22.90;99.90
17954;DHT22;9102;53.548;9.926;2022-07-04T10:38:56;22.70;99.90
17954;DHT22;9102;53.548;9.926;2022-07-04T10:41:25;22.50;99.90
17954;DHT22;9102;53.548;9.926;2022-07-04T10:43:54;22.40;99.90
17954;DHT22;9102;53.548;9.926;2022-07-04T10:46:24;22.50;99.90
17954;DHT22;9102;53.548;9.926;2022-07-04T10:48:52;22.80;99.90
17954;DHT22;9102;53.548;9.926;2022-07-04T10:51:33;23.00;99.90
17954;DHT22;9102;53.548;9.926;2022-07-04T10:54:02;23.30;99.90
17954;DHT22;9102;53.548;9.926;2022-07-04T10:56:36;23.20;99.90
17954;DHT22;9102;53.548;9.926;2022-07-04T10:59:07;23.20;99.90
17954;DHT22;9102;53.548;9.926;2022-07-04T11:01:35;23.20;99.90
17954;DHT22;9102;53.548;9.926;2022-07-04T11:04:02;23.40;99.90
17954;DHT22;9102;53.548;9.926;2022-07-04T11:06:53;23.60;99.90
17954;DHT22;9102;53.548;9.926;2022-07-04T11:09:22;23.80;99.90
17954;DHT22;9102;53.548;9.926;2022-07-04T11:11:51;24.10;99.90
17954;DHT22;9102;53.548;9.926;2022-07-04T11:14:39;24.10;99.90
17954;DHT22;9102;53.548;9.926;2022-07-04T11:17:08;24.10;99.90
17954;DHT22;9102;53.548;9.926;2022-07-04T11:19:35;23.80;99.90
17954;DHT22;9102;53.548;9.926;2022-07-04T11:22:04;23.40;99.90
17954;DHT22;9102;53.548;9.926;2022-07-04T11:24:32;23.00;99.90
17954;DHT22;9102;53.548;9.926;2022-07-04T11:27:00;22.90;99.90
17954;DHT22;9102;53.548;9.926;2022-07-04T11:29:27;22.90;99.90
17954;DHT22;9102;53.548;9.926;2022-07-04T11:31:55;22.90;99.90
17954;DHT22;9102;53.548;9.926;2022-07-04T11:34:22;22.80;99.90
17954;DHT22;9102;53.548;9.926;2022-07-04T11:36:50;22.90;99.90
17954;DHT22;9102;53.548;9.926;2022-07-04T11:39:20;22.90;99.90
17954;DHT22;9102;53.548;9.926;2022-07-04T11:41:49;22.90;99.90
17954;DHT22;9102;53.548;9.926;2022-07-04T11:44:34;22.10;99.90
17954;DHT22;9102;53.548;9.926;2022-07-04T11:47:20;22.00;99.90
17954;DHT22;9102;53.548;9.926;2022-07-04T11:49:49;22.50;99.90
17954;DHT22;9102;53.548;9.926;2022-07-04T11:52:18;22.70;99.90
17954;DHT22;9102;53.548;9.926;2022-07-04T11:54:49;23.00;99.90
17954;DHT22;9102;53.548;9.926;2022-07-04T11:57:19;22.80;99.90
17954;DHT22;9102;53.548;9.926;2022-07-04T11:59:54;22.60;99.90
17954;DHT22;9102;53.548;9.926;2022-07-04T12:02:22;22.70;99.90
17954;DHT22;9102;53.548;9.926;2022-07-04T12:04:49;22.80;99.90
17954;DHT22;9102;53.548;9.926;2022-07-04T12:07:18;22.90;99.90
17954;DHT22;9102;53.548;9.926;2022-07-04T12:09:47;22.90;99.90
17954;DHT22;9102;53.548;9.926;2022-07-04T12:12:14;23.00;99.90
17954;DHT22;9102;53.548;9.926;2022-07-04T12:15:00;23.20;99.90
17954;DHT22;9102;53.548;9.926;2022-07-04T12:17:32;23.30;99.90
17954;DHT22;9102;53.548;9.926;2022-07-04T12:20:01;23.50;99.90
17954;DHT22;9102;53.548;9.926;2022-07-04T12:22:36;23.40;99.90
17954;DHT22;9102;53.548;9.926;2022-07-04T12:25:07;23.40;99.90
17954;DHT22;9102;53.548;9.926;2022-07-04T12:27:36;23.00;99.90
17954;DHT22;9102;53.548;9.926;2022-07-04T12:30:04;22.80;99.90
17954;DHT22;9102;53.548;9.926;2022-07-04T12:32:47;22.80;99.90
17954;DHT22;9102;53.548;9.926;2022-07-04T12:35:48;22.90;99.90
17954;DHT22;9102;53.548;9.926;2022-07-04T12:38:17;23.00;99.90
17954;DHT22;9102;53.548;9.926;2022-07-04T12:40:56;23.10;99.90
17954;DHT22;9102;53.548;9.926;2022-07-04T12:43:24;23.30;99.90
17954;DHT22;9102;53.548;9.926;2022-07-04T12:45:53;23.40;99.90
17954;DHT22;9102;53.548;9.926;2022-07-04T12:48:23;23.50;99.90
17954;DHT22;9102;53.548;9.926;2022-07-04T12:50:51;23.60;99.90
17954;DHT22;9102;53.548;9.926;2022-07-04T12:53:19;23.70;99.90
17954;DHT22;9102;53.548;9.926;2022-07-04T12:55:48;24.00;99.90
17954;DHT22;9102;53.548;9.926;2022-07-04T12:58:16;24.10;99.90
17954;DHT22;9102;53.548;9.926;2022-07-04T13:00:43;24.10;99.90
17954;DHT22;9102;53.548;9.926;2022-07-04T13:03:11;24.10;99.90
17954;DHT22;9102;53.548;9.926;2022-07-04T13:05:38;24.20;99.90
17954;DHT22;9102;53.548;9.926;2022-07-04T13:08:06;24.50;99.90
17954;DHT22;9102;53.548;9.926;2022-07-04T13:10:33;24.40;99.90
17954;DHT22;9102;53.548;9.926;2022-07-04T13:13:00;24.30;99.90
17954;DHT22;9102;53.548;9.926;2022-07-04T13:15:29;24.10;99.90
17954;DHT22;9102;53.548;9.926;2022-07-04T13:17:56;24.10;99.90
17954;DHT22;9102;53.548;9.926;2022-07-04T13:20:23;24.40;99.90
17954;DHT22;9102;53.548;9.926;2022-07-04T13:22:50;24.80;99.90
17954;DHT22;9102;53.548;9.926;2022-07-04T13:25:17;24.80;99.90
17954;DHT22;9102;53.548;9.926;2022-07-04T13:27:44;24.80;99.90
17954;DHT22;9102;53.548;9.926;2022-07-04T13:30:12;25.00;99.90
17954;DHT22;9102;53.548;9.926;2022-07-04T13:32:40;25.00;99.90
17954;DHT22;9102;53.548;9.926;2022-07-04T13:35:08;24.70;99.90
17954;DHT22;9102;53.548;9.926;2022-07-04T13:37:35;24.30;99.90
17954;DHT22;9102;53.548;9.926;2022-07-04T13:40:02;23.70;99.90
17954;DHT22;9102;53.548;9.926;2022-07-04T13:42:28;23.50;99.90
17954;DHT22;9102;53.548;9.926;2022-07-04T13:45:13;23.20;99.90
17954;DHT22;9102;53.548;9.926;2022-07-04T13:47:42;23.00;99.90
17954;DHT22;9102;53.548;9.926;2022-07-04T13:50:09;22.80;99.90
17954;DHT22;9102;53.548;9.926;2022-07-04T13:52:36;22.70;99.90
17954;DHT22;9102;53.548;9.926;2022-07-04T13:55:04;22.70;99.90
17954;DHT22;9102;53.548;9.926;2022-07-04T13:57:31;22.90;99.90
17954;DHT22;9102;53.548;9.926;2022-07-04T13:59:58;23.20;99.90
17954;DHT22;9102;53.548;9.926;2022-07-04T14:02:25;23.70;99.90
17954;DHT22;9102;53.548;9.926;2022-07-04T14:04:53;24.10;99.90
17954;DHT22;9102;53.548;9.926;2022-07-04T14:07:20;24.20;99.90
17954;DHT22;9102;53.548;9.926;2022-07-04T14:09:47;24.30;99.90
17954;DHT22;9102;53.548;9.926;2022-07-04T14:12:14;24.30;99.90
17954;DHT22;9102;53.548;9.926;2022-07-04T14:14:42;24.20;99.90
17954;DHT22;9102;53.548;9.926;2022-07-04T14:17:09;24.10;99.90
17954;DHT22;9102;53.548;9.926;2022-07-04T14:19:36;24.30;99.90
17954;DHT22;9102;53.548;9.926;2022-07-04T14:22:05;24.30;99.90
17954;DHT22;9102;53.548;9.926;2022-07-04T14:24:31;24.30;99.90
17954;DHT22;9102;53.548;9.926;2022-07-04T14:26:58;24.40;99.90
17954;DHT22;9102;53.548;9.926;2022-07-04T14:29:25;24.10;99.90
17954;DHT22;9102;53.548;9.926;2022-07-04T14:31:53;23.80;99.90
17954;DHT22;9102;53.548;9.926;2022-07-04T14:34:19;22.80;99.90
17954;DHT22;9102;53.548;9.926;2022-07-04T14:36:46;22.90;99.90
17954;DHT22;9102;53.548;9.926;2022-07-04T14:39:15;23.10;99.90
17954;DHT22;9102;53.548;9.926;2022-07-04T14:41:42;23.30;99.90
17954;DHT22;9102;53.548;9.926;2022-07-04T14:44:09;23.40;99.90
17954;DHT22;9102;53.548;9.926;2022-07-04T14:46:36;23.30;99.90
17954;DHT22;9102;53.548;9.926;2022-07-04T14:49:02;23.30;99.90
17954;DHT22;9102;53.548;9.926;2022-07-04T14:51:29;23.20;99.90
17954;DHT22;9102;53.548;9.926;2022-07-04T14:53:56;23.10;99.90
17954;DHT22;9102;53.548;9.926;2022-07-04T14:56:24;23.20;99.90
17954;DHT22;9102;53.548;9.926;2022-07-04T14:58:51;23.30;99.90
17954;DHT22;9102;53.548;9.926;2022-07-04T15:01:18;23.20;99.90
17954;DHT22;9102;53.548;9.926;2022-07-04T15:03:45;23.00;99.90
17954;DHT22;9102;53.548;9.926;2022-07-04T15:06:12;23.00;99.90
17954;DHT22;9102;53.548;9.926;2022-07-04T15:08:39;22.90;99.90
17954;DHT22;9102;53.548;9.926;2022-07-04T15:11:06;23.00;99.90
17954;DHT22;9102;53.548;9.926;2022-07-04T15:13:34;23.10;99.90
17954;DHT22;9102;53.548;9.926;2022-07-04T15:16:01;23.30;99.90
17954;DHT22;9102;53.548;9.926;2022-07-04T15:18:28;23.40;99.90
17954;DHT22;9102;53.548;9.926;2022-07-04T15:20:55;23.30;99.90
17954;DHT22;9102;53.548;9.926;2022-07-04T15:23:40;23.30;99.90
17954;DHT22;9102;53.548;9.926;2022-07-04T15:26:24;23.20;99.90
17954;DHT22;9102;53.548;9.926;2022-07-04T15:28:52;23.20;99.90
17954;DHT22;9102;53.548;9.926;2022-07-04T15:31:19;23.20;99.90
17954;DHT22;9102;53.548;9.926;2022-07-04T15:33:46;23.30;99.90
17954;DHT22;9102;53.548;9.926;2022-07-04T15:36:13;23.30;99.90
17954;DHT22;9102;53.548;9.926;2022-07-04T15:38:40;23.40;99.90
17954;DHT22;9102;53.548;9.926;2022-07-04T15:41:07;23.50;99.90
17954;DHT22;9102;53.548;9.926;2022-07-04T15:43:36;23.40;99.90
17954;DHT22;9102;53.548;9.926;2022-07-04T15:46:04;23.10;99.90
17954;DHT22;9102;53.548;9.926;2022-07-04T15:48:31;22.90;99.90
17954;DHT22;9102;53.548;9.926;2022-07-04T15:50:58;23.00;99.90
17954;DHT22;9102;53.548;9.926;2022-07-04T15:53:25;23.00;99.90